createdAt,value
2019-01-15T00:00:30.710Z,2.80
2019-01-15T00:02:59.708Z,2.20
2019-01-15T00:05:28.788Z,2.80
2019-01-15T00:07:57.703Z,2.90
2019-01-15T00:10:26.653Z,2.90
2019-01-15T00:12:56.354Z,2.90
2019-01-15T00:15:25.400Z,2.90
2019-01-15T00:17:54.374Z,3.00
2019-01-15T00:20:23.479Z,3.00
2019-01-15T00:22:52.477Z,3.00
2019-01-15T00:25:21.371Z,3.00
2019-01-15T00:27:50.374Z,3.00
2019-01-15T00:30:19.413Z,3.00
2019-01-15T00:32:48.507Z,3.00
2019-01-15T00:35:17.550Z,3.00
2019-01-15T00:37:46.540Z,3.00
2019-01-15T00:40:16.739Z,3.00
2019-01-15T00:42:45.829Z,3.00
2019-01-15T00:45:14.818Z,3.00
2019-01-15T00:47:43.892Z,3.00
2019-01-15T00:50:15.380Z,3.00
2019-01-15T00:52:44.393Z,3.00
2019-01-15T00:55:13.374Z,3.00
2019-01-15T00:57:42.418Z,3.10
2019-01-15T01:00:19.561Z,3.00
2019-01-15T01:02:48.548Z,3.00
2019-01-15T01:05:17.537Z,3.00
2019-01-15T01:07:46.518Z,3.10
2019-01-15T01:10:15.955Z,3.10
2019-01-15T01:12:46.136Z,3.10
2019-01-15T01:15:17.221Z,3.10
2019-01-15T01:17:46.208Z,3.10
2019-01-15T01:20:21.368Z,3.10
2019-01-15T01:22:51.305Z,3.10
2019-01-15T01:25:20.360Z,3.10
2019-01-15T01:27:49.332Z,3.10
2019-01-15T01:30:20.315Z,3.10
2019-01-15T01:32:49.352Z,3.10
2019-01-15T01:35:18.306Z,3.20
2019-01-15T01:37:47.363Z,3.10
2019-01-15T01:40:18.106Z,3.10
2019-01-15T01:42:47.013Z,3.10
2019-01-15T01:45:16.736Z,3.10
2019-01-15T01:47:45.879Z,3.20
2019-01-15T01:50:15.249Z,3.10
2019-01-15T01:52:44.493Z,3.20
2019-01-15T01:55:14.904Z,3.10
2019-01-15T01:57:44.199Z,3.10
2019-01-15T02:00:23.829Z,3.10
2019-01-15T02:02:52.789Z,3.10
2019-01-15T02:05:21.781Z,3.10
2019-01-15T02:07:50.810Z,3.10
2019-01-15T02:10:21.545Z,3.10
2019-01-15T02:12:50.733Z,3.10
2019-01-15T02:15:24.408Z,3.10
2019-01-15T02:17:53.510Z,3.10
2019-01-15T02:20:22.455Z,3.00
2019-01-15T02:22:51.529Z,3.00
2019-01-15T02:25:20.556Z,3.10
2019-01-15T02:27:54.345Z,3.00
2019-01-15T02:30:25.552Z,3.00
2019-01-15T02:32:54.660Z,3.00
2019-01-15T02:35:23.684Z,3.00
2019-01-15T02:37:52.733Z,2.90
2019-01-15T02:40:21.753Z,2.90
2019-01-15T02:42:50.801Z,2.90
2019-01-15T02:45:21.005Z,2.90
2019-01-15T02:47:49.951Z,2.90
2019-01-15T02:50:22.010Z,2.90
2019-01-15T02:52:51.040Z,2.80
2019-01-15T02:55:20.254Z,2.80
2019-01-15T02:57:49.301Z,2.90
2019-01-15T03:00:23.177Z,2.90
2019-01-15T03:02:52.156Z,2.90
2019-01-15T03:05:21.188Z,2.90
2019-01-15T03:07:50.253Z,2.80
2019-01-15T03:10:22.397Z,2.90
2019-01-15T03:12:56.727Z,2.90
2019-01-15T03:15:24.158Z,2.90
2019-01-15T03:17:53.481Z,2.90
2019-01-15T03:20:22.580Z,2.90
2019-01-15T03:22:51.552Z,2.90
2019-01-15T03:25:20.470Z,2.90
2019-01-15T03:27:49.380Z,2.80
2019-01-15T03:30:21.453Z,2.80
2019-01-15T03:32:50.533Z,2.80
2019-01-15T03:35:19.606Z,2.80
2019-01-15T03:37:48.591Z,2.80
2019-01-15T03:40:22.968Z,2.80
2019-01-15T03:42:51.955Z,2.80
2019-01-15T03:45:20.964Z,2.80
2019-01-15T03:47:50.004Z,2.80
2019-01-15T03:50:18.984Z,2.80
2019-01-15T03:52:47.793Z,2.80
2019-01-15T03:55:17.213Z,2.80
2019-01-15T03:57:46.488Z,2.90
2019-01-15T04:00:20.542Z,2.80
2019-01-15T04:02:49.788Z,2.80
2019-01-15T04:05:19.127Z,2.90
2019-01-15T04:07:50.481Z,2.80
2019-01-15T04:10:19.593Z,2.80
2019-01-15T04:12:48.492Z,2.80
2019-01-15T04:15:17.550Z,2.80
2019-01-15T04:17:46.429Z,2.80
2019-01-15T04:20:15.780Z,2.80
2019-01-15T04:22:44.743Z,2.80
2019-01-15T04:25:13.793Z,2.90
2019-01-15T04:27:42.753Z,2.80
2019-01-15T04:30:14.999Z,2.80
2019-01-15T04:32:43.910Z,2.80
2019-01-15T04:35:12.982Z,2.80
2019-01-15T04:37:42.005Z,2.80
2019-01-15T04:40:13.657Z,2.80
2019-01-15T04:42:42.797Z,2.80
2019-01-15T04:45:13.090Z,2.80
2019-01-15T04:47:42.211Z,2.70
2019-01-15T04:50:11.295Z,2.80
2019-01-15T04:52:42.175Z,2.70
2019-01-15T04:55:13.195Z,2.70
2019-01-15T04:57:42.164Z,2.70
2019-01-15T05:00:14.324Z,2.70
2019-01-15T05:02:43.590Z,2.70
2019-01-15T05:05:12.557Z,2.70
2019-01-15T05:07:41.677Z,2.70
2019-01-15T05:10:11.875Z,2.70
2019-01-15T05:12:40.994Z,2.70
2019-01-15T05:15:13.069Z,2.70
2019-01-15T05:17:42.172Z,2.70
2019-01-15T05:20:13.616Z,2.70
2019-01-15T05:22:42.670Z,2.70
2019-01-15T05:25:15.643Z,2.60
2019-01-15T05:27:44.616Z,2.60
2019-01-15T05:30:16.752Z,2.60
2019-01-15T05:32:45.877Z,2.60
2019-01-15T05:35:14.897Z,2.60
2019-01-15T05:37:43.933Z,2.60
2019-01-15T05:40:13.285Z,2.60
2019-01-15T05:42:42.596Z,2.60
2019-01-15T05:45:15.820Z,2.60
2019-01-15T05:47:45.062Z,2.60
2019-01-15T05:50:17.612Z,2.60
2019-01-15T05:52:46.609Z,2.50
2019-01-15T05:55:15.686Z,2.50
2019-01-15T05:57:44.522Z,2.60
2019-01-15T06:00:13.644Z,2.60
2019-01-15T06:02:42.668Z,2.70
2019-01-15T06:05:11.933Z,2.70
2019-01-15T06:07:41.032Z,2.80
2019-01-15T06:10:11.365Z,2.70
2019-01-15T06:12:40.313Z,2.70
2019-01-15T06:15:10.635Z,2.70
2019-01-15T06:17:39.529Z,2.70
2019-01-15T06:20:12.650Z,2.70
2019-01-15T06:22:41.620Z,2.70
2019-01-15T06:25:10.949Z,2.70
2019-01-15T06:27:39.985Z,2.70
2019-01-15T06:30:12.309Z,2.70
2019-01-15T06:32:41.200Z,2.70
2019-01-15T06:35:10.216Z,2.70
2019-01-15T06:37:39.190Z,2.70
2019-01-15T06:40:10.552Z,2.70
2019-01-15T06:42:39.596Z,2.80
2019-01-15T06:45:15.277Z,2.80
2019-01-15T06:47:44.271Z,2.80
2019-01-15T06:50:14.012Z,2.80
2019-01-15T06:52:43.092Z,2.80
2019-01-15T06:55:14.022Z,2.80
2019-01-15T06:57:43.066Z,2.70
2019-01-15T07:00:18.597Z,2.80
2019-01-15T07:02:47.630Z,2.70
2019-01-15T07:05:17.044Z,2.70
2019-01-15T07:07:46.128Z,2.70
2019-01-15T07:10:18.292Z,2.70
2019-01-15T07:12:47.262Z,2.70
2019-01-15T07:15:16.205Z,2.80
2019-01-15T07:17:45.196Z,2.80
2019-01-15T07:20:14.874Z,2.80
2019-01-15T07:22:43.938Z,2.80
2019-01-15T07:25:14.980Z,2.80
2019-01-15T07:27:44.027Z,2.80
2019-01-15T07:30:17.224Z,2.80
2019-01-15T07:32:46.201Z,2.80
2019-01-15T07:35:15.194Z,2.80
2019-01-15T07:37:44.187Z,2.90
2019-01-15T07:40:13.260Z,2.80
2019-01-15T07:42:42.265Z,2.80
2019-01-15T07:45:12.169Z,2.80
2019-01-15T07:47:41.253Z,2.90
2019-01-15T07:50:13.447Z,2.80
2019-01-15T07:52:42.404Z,2.90
2019-01-15T07:55:12.465Z,2.90
2019-01-15T07:57:41.428Z,2.90
2019-01-15T08:00:14.256Z,2.90
2019-01-15T08:02:43.233Z,3.00
2019-01-15T08:05:12.550Z,3.00
2019-01-15T08:07:41.549Z,3.10
2019-01-15T08:10:11.909Z,3.10
2019-01-15T08:12:40.902Z,3.10
2019-01-15T08:15:12.364Z,3.10
2019-01-15T08:17:41.348Z,3.20
2019-01-15T08:20:11.493Z,3.20
2019-01-15T08:22:40.648Z,3.20
2019-01-15T08:25:09.969Z,3.20
2019-01-15T08:27:39.000Z,3.20
2019-01-15T08:30:22.378Z,3.30
2019-01-15T08:32:51.309Z,3.30
2019-01-15T08:35:20.377Z,3.30
2019-01-15T08:37:49.363Z,3.40
2019-01-15T08:40:18.360Z,3.30
2019-01-15T08:42:47.358Z,3.40
2019-01-15T08:45:16.748Z,3.50
2019-01-15T08:47:50.961Z,3.40
2019-01-15T08:50:22.006Z,3.40
2019-01-15T08:52:51.100Z,3.40
2019-01-15T08:55:20.071Z,3.40
2019-01-15T08:57:48.992Z,3.40
2019-01-15T09:00:17.855Z,3.50
2019-01-15T09:02:46.818Z,3.50
2019-01-15T09:05:15.800Z,3.50
2019-01-15T09:07:44.757Z,3.60
2019-01-15T09:10:15.719Z,3.70
2019-01-15T09:12:44.707Z,3.80
2019-01-15T09:15:15.058Z,3.80
2019-01-15T09:17:44.213Z,3.90
2019-01-15T09:20:17.808Z,4.10
2019-01-15T09:22:46.957Z,4.60
2019-01-15T09:25:16.117Z,4.70
2019-01-15T09:27:45.064Z,4.60
2019-01-15T09:30:16.543Z,4.30
2019-01-15T09:32:45.735Z,4.60
2019-01-15T09:35:14.749Z,4.60
2019-01-15T09:37:44.549Z,5.10
2019-01-15T09:40:15.897Z,5.10
2019-01-15T09:42:44.909Z,5.60
2019-01-15T09:45:15.742Z,5.90
2019-01-15T09:47:55.193Z,5.20
2019-01-15T09:50:24.273Z,5.10
2019-01-15T09:52:53.496Z,5.20
2019-01-15T09:55:22.461Z,5.30
2019-01-15T09:57:51.409Z,5.50
2019-01-15T10:00:20.398Z,5.90
2019-01-15T10:02:49.515Z,6.30
2019-01-15T10:05:18.391Z,6.10
2019-01-15T10:07:47.444Z,6.20
2019-01-15T10:10:16.499Z,7.20
2019-01-15T10:12:45.572Z,7.10
2019-01-15T10:15:17.012Z,7.40
2019-01-15T10:17:45.952Z,7.10
2019-01-15T10:20:16.841Z,6.80
2019-01-15T10:22:45.929Z,6.50
2019-01-15T10:25:18.547Z,6.10
2019-01-15T10:27:48.927Z,5.90
2019-01-15T10:30:26.069Z,5.90
2019-01-15T10:33:03.923Z,6.10
2019-01-15T10:36:03.787Z,6.40
2019-01-15T10:38:33.657Z,6.20
2019-01-15T10:41:02.868Z,6.50
2019-01-15T10:43:32.881Z,7.60
2019-01-15T10:46:02.209Z,7.10
2019-01-15T10:48:31.180Z,6.20
2019-01-15T10:51:00.204Z,6.30
2019-01-15T10:53:29.304Z,6.20
2019-01-15T10:55:58.355Z,6.90
2019-01-15T10:58:27.418Z,7.30
2019-01-15T11:00:56.390Z,7.80
2019-01-15T11:03:25.420Z,7.50
2019-01-15T11:05:54.290Z,7.40
2019-01-15T11:08:23.177Z,7.30
2019-01-15T11:10:52.166Z,7.20
2019-01-15T11:13:21.198Z,6.70
2019-01-15T11:15:50.184Z,6.90
2019-01-15T11:18:19.274Z,7.50
2019-01-15T11:20:48.420Z,7.60
2019-01-15T11:23:17.595Z,7.30
2019-01-15T11:25:46.617Z,7.00
2019-01-15T11:28:15.665Z,6.90
2019-01-15T11:30:44.629Z,6.80
2019-01-15T11:33:13.784Z,7.40
2019-01-15T11:35:42.770Z,7.70
2019-01-15T11:38:11.854Z,7.40
2019-01-15T11:40:40.828Z,7.50
2019-01-15T11:43:09.756Z,7.20
2019-01-15T11:45:38.806Z,7.10
2019-01-15T11:48:07.892Z,7.00
2019-01-15T11:50:36.753Z,7.00
2019-01-15T11:53:05.818Z,6.80
2019-01-15T11:55:34.696Z,6.70
2019-01-15T11:58:04.385Z,6.80
2019-01-15T12:00:52.390Z,6.80
2019-01-15T12:03:46.477Z,6.90
2019-01-15T12:06:33.548Z,7.00
2019-01-15T12:09:30.924Z,6.90
2019-01-15T12:12:21.977Z,6.90
2019-01-15T12:15:15.942Z,6.70
2019-01-15T12:18:10.054Z,6.80
2019-01-15T12:20:58.511Z,7.00
2019-01-15T12:24:01.549Z,6.90
2019-01-15T12:26:36.553Z,6.90
2019-01-15T12:29:15.288Z,6.90
2019-01-15T12:32:02.381Z,6.90
2019-01-15T12:34:50.546Z,6.80
2019-01-15T12:37:33.845Z,6.70
2019-01-15T12:40:27.973Z,6.60
2019-01-15T12:43:15.092Z,6.60
2019-01-15T12:46:13.190Z,6.50
2019-01-15T12:49:04.272Z,6.40
2019-01-15T12:52:04.365Z,6.40
2019-01-15T12:54:55.389Z,6.40
2019-01-15T12:57:49.577Z,6.40
2019-01-15T13:00:37.675Z,6.50
2019-01-15T13:03:43.887Z,6.40
2019-01-15T13:06:30.816Z,6.50
2019-01-15T13:09:18.777Z,6.60
2019-01-15T13:12:07.274Z,6.60
2019-01-15T13:14:54.296Z,6.40
2019-01-15T13:17:43.546Z,6.40
2019-01-15T13:20:41.947Z,6.40
2019-01-15T13:23:29.964Z,6.30
2019-01-15T13:26:16.789Z,6.40
2019-01-15T13:29:19.807Z,6.40
2019-01-15T13:32:09.725Z,6.30
2019-01-15T13:35:00.481Z,6.20
2019-01-15T13:37:48.477Z,6.30
2019-01-15T13:40:39.593Z,6.40
2019-01-15T13:43:32.740Z,6.30
2019-01-15T13:46:18.809Z,6.30
2019-01-15T13:49:06.717Z,6.30
2019-01-15T13:51:53.718Z,6.30
2019-01-15T13:54:33.312Z,6.20
2019-01-15T13:57:33.415Z,6.20
2019-01-15T14:00:18.957Z,6.00
2019-01-15T14:03:05.651Z,6.10
2019-01-15T14:05:42.824Z,6.10
2019-01-15T14:08:29.553Z,6.00
2019-01-15T14:11:20.728Z,5.90
2019-01-15T14:14:21.086Z,5.90
2019-01-15T14:17:18.235Z,5.90
2019-01-15T14:20:15.530Z,5.90
2019-01-15T14:22:59.025Z,5.90
2019-01-15T14:25:43.037Z,5.80
2019-01-15T14:28:27.117Z,5.90
2019-01-15T14:31:21.234Z,5.90
2019-01-15T14:34:09.229Z,5.90
2019-01-15T14:36:48.535Z,5.90
2019-01-15T14:39:36.034Z,5.90
2019-01-15T14:42:17.656Z,5.90
2019-01-15T14:45:05.734Z,5.80
2019-01-15T14:47:53.906Z,5.80
2019-01-15T14:50:48.653Z,5.80
2019-01-15T14:53:34.401Z,5.80
2019-01-15T14:56:11.817Z,5.80
2019-01-15T14:59:08.933Z,5.80
2019-01-15T15:01:59.790Z,5.80
2019-01-15T15:05:06.197Z,5.80
2019-01-15T15:07:53.141Z,5.80
2019-01-15T15:10:59.515Z,5.80
2019-01-15T15:13:53.813Z,5.70
2019-01-15T15:16:39.404Z,5.70
2019-01-15T15:19:27.420Z,5.70
2019-01-15T15:22:15.475Z,5.70
2019-01-15T15:25:09.800Z,5.70
2019-01-15T15:27:56.399Z,5.70
2019-01-15T15:30:43.436Z,5.70
2019-01-15T15:33:37.730Z,5.60
2019-01-15T15:36:25.829Z,5.60
2019-01-15T15:39:14.916Z,5.60
2019-01-15T15:42:01.898Z,5.60
2019-01-15T15:45:02.076Z,5.60
2019-01-15T15:47:48.404Z,5.60
2019-01-15T15:50:35.345Z,5.60
2019-01-15T15:53:38.715Z,5.60
2019-01-15T15:56:33.574Z,5.60
2019-01-15T15:59:27.926Z,5.50
2019-01-15T16:02:22.064Z,5.50
2019-01-15T16:05:08.764Z,5.60
2019-01-15T16:08:09.070Z,5.50
2019-01-15T16:10:55.129Z,5.40
2019-01-15T16:13:42.045Z,5.40
2019-01-15T16:16:39.336Z,5.40
2019-01-15T16:19:27.909Z,5.40
2019-01-15T16:22:13.419Z,5.40
2019-01-15T16:24:54.461Z,5.30
2019-01-15T16:27:50.204Z,5.30
2019-01-15T16:30:44.285Z,5.30
2019-01-15T16:33:35.261Z,5.30
2019-01-15T16:36:21.920Z,5.30
2019-01-15T16:39:16.177Z,5.30
2019-01-15T16:42:22.475Z,5.30
2019-01-15T16:45:09.669Z,5.20
2019-01-15T16:48:01.033Z,5.30
2019-01-15T16:50:47.728Z,5.20
2019-01-15T16:53:34.967Z,5.20
2019-01-15T16:56:26.292Z,5.30
2019-01-15T16:59:14.288Z,5.30
2019-01-15T17:02:15.005Z,5.30
2019-01-15T17:05:06.036Z,5.30
2019-01-15T17:08:06.034Z,5.30
2019-01-15T17:10:57.080Z,5.30
2019-01-15T17:13:46.597Z,5.20
2019-01-15T17:16:40.642Z,5.20
2019-01-15T17:19:34.774Z,5.20
2019-01-15T17:22:31.945Z,5.20
2019-01-15T17:25:18.704Z,5.20
2019-01-15T17:28:25.156Z,5.20
2019-01-15T17:31:04.901Z,5.20
2019-01-15T17:34:05.441Z,5.20
2019-01-15T17:36:56.331Z,5.20
2019-01-15T17:39:44.325Z,5.20
2019-01-15T17:42:31.224Z,5.20
2019-01-15T17:45:22.349Z,5.20
2019-01-15T17:48:16.459Z,5.20
2019-01-15T17:51:03.639Z,5.20
2019-01-15T17:53:51.572Z,5.20
2019-01-15T17:56:34.468Z,5.20
2019-01-15T17:59:28.611Z,5.30
2019-01-15T18:02:16.610Z,5.20
2019-01-15T18:05:10.851Z,5.20
2019-01-15T18:08:04.857Z,5.20
2019-01-15T18:10:58.807Z,5.20
2019-01-15T18:13:45.926Z,5.20
2019-01-15T18:16:37.213Z,5.20
2019-01-15T18:19:33.153Z,5.20
2019-01-15T18:22:33.383Z,5.20
2019-01-15T18:25:33.498Z,5.20
2019-01-15T18:28:20.250Z,5.20
2019-01-15T18:31:08.263Z,5.20
2019-01-15T18:33:56.355Z,5.20
2019-01-15T18:36:44.329Z,5.20
2019-01-15T18:39:31.499Z,5.20
2019-01-15T18:42:37.921Z,5.30
2019-01-15T18:45:19.999Z,5.30
2019-01-15T18:48:12.072Z,5.30
2019-01-15T18:51:03.586Z,5.30
2019-01-15T18:53:57.751Z,5.30
2019-01-15T18:56:49.504Z,5.30
2019-01-15T18:59:29.871Z,5.30
2019-01-15T19:02:16.682Z,5.30
2019-01-15T19:05:07.995Z,5.30
2019-01-15T19:07:50.597Z,5.30
2019-01-15T19:10:40.040Z,5.30
2019-01-15T19:13:34.465Z,5.20
2019-01-15T19:16:31.401Z,5.30
2019-01-15T19:19:28.797Z,5.30
2019-01-15T19:22:15.826Z,5.20
2019-01-15T19:24:54.606Z,5.20
2019-01-15T19:27:54.686Z,5.30
2019-01-15T19:30:36.588Z,5.20
2019-01-15T19:33:36.885Z,5.30
2019-01-15T19:36:25.918Z,5.20
2019-01-15T19:39:13.937Z,5.20
2019-01-15T19:42:02.248Z,5.20
2019-01-15T19:44:45.517Z,5.20
2019-01-15T19:47:33.525Z,5.20
2019-01-15T19:50:36.698Z,5.20
2019-01-15T19:53:29.260Z,5.20
2019-01-15T19:56:08.270Z,5.20
2019-01-15T19:58:56.322Z,5.20
2019-01-15T20:01:43.693Z,5.20
2019-01-15T20:04:30.601Z,5.20
2019-01-15T20:07:11.781Z,5.10
2019-01-15T20:09:59.885Z,5.10
2019-01-15T20:12:46.454Z,5.10
2019-01-15T20:15:31.971Z,5.10
2019-01-15T20:18:19.149Z,5.10
2019-01-15T20:20:58.534Z,5.10
2019-01-15T20:23:46.744Z,5.10
2019-01-15T20:26:41.631Z,5.20
2019-01-15T20:29:39.519Z,5.30
2019-01-15T20:32:19.389Z,5.20
2019-01-15T20:35:05.210Z,5.10
2019-01-15T20:37:51.881Z,5.20
2019-01-15T20:40:43.025Z,5.20
2019-01-15T20:43:37.148Z,5.10
2019-01-15T20:46:16.556Z,5.10
2019-01-15T20:49:04.614Z,5.10
2019-01-15T20:51:55.973Z,5.10
2019-01-15T20:54:50.137Z,5.20
2019-01-15T20:57:47.290Z,5.20
2019-01-15T21:00:47.708Z,5.20
2019-01-15T21:03:44.545Z,5.20
2019-01-15T21:06:29.706Z,5.20
2019-01-15T21:09:26.833Z,5.20
2019-01-15T21:12:20.715Z,5.20
2019-01-15T21:15:07.818Z,5.20
2019-01-15T21:18:01.943Z,5.20
2019-01-15T21:21:05.971Z,5.20
2019-01-15T21:23:52.636Z,5.20
2019-01-15T21:26:44.006Z,5.20
2019-01-15T21:29:41.053Z,5.10
2019-01-15T21:32:31.974Z,5.20
2019-01-15T21:35:32.136Z,5.20
2019-01-15T21:38:18.846Z,5.20
2019-01-15T21:41:15.926Z,5.10
2019-01-15T21:44:07.476Z,5.20
2019-01-15T21:46:53.622Z,5.20
2019-01-15T21:49:50.747Z,5.20
2019-01-15T21:52:51.078Z,5.20
2019-01-15T21:55:34.289Z,5.20
2019-01-15T21:58:14.385Z,5.20
2019-01-15T22:01:01.856Z,5.20
2019-01-15T22:03:51.803Z,5.20
2019-01-15T22:06:49.114Z,5.60
2019-01-15T22:09:55.261Z,5.10
2019-01-15T22:12:42.240Z,5.20
2019-01-15T22:15:48.592Z,5.10
2019-01-15T22:18:35.329Z,5.20
2019-01-15T22:21:24.292Z,5.20
2019-01-15T22:24:21.530Z,5.20
2019-01-15T22:27:15.406Z,5.20
2019-01-15T22:30:18.554Z,5.20
2019-01-15T22:33:12.592Z,5.20
2019-01-15T22:35:59.720Z,5.30
2019-01-15T22:38:57.117Z,5.20
2019-01-15T22:41:43.932Z,5.30
2019-01-15T22:44:47.133Z,5.20
2019-01-15T22:47:41.388Z,5.20
2019-01-15T22:50:41.449Z,5.20
2019-01-15T22:53:32.557Z,5.20
2019-01-15T22:56:19.424Z,5.20
2019-01-15T22:59:08.887Z,5.20
2019-01-15T23:01:51.432Z,5.20
2019-01-15T23:04:32.368Z,5.10
2019-01-15T23:07:11.839Z,5.10
2019-01-15T23:09:50.925Z,5.10
2019-01-15T23:12:42.162Z,5.10
2019-01-15T23:15:29.042Z,5.10
2019-01-15T23:18:20.424Z,5.10
2019-01-15T23:21:14.309Z,5.10
2019-01-15T23:24:02.287Z,5.10
2019-01-15T23:26:53.081Z,5.00
2019-01-15T23:29:40.014Z,5.00
2019-01-15T23:32:31.609Z,5.00
2019-01-15T23:35:19.529Z,5.10
2019-01-15T23:38:16.894Z,5.00
2019-01-15T23:41:04.936Z,5.00
2019-01-15T23:44:00.416Z,5.00
2019-01-15T23:46:51.515Z,5.00
2019-01-15T23:49:42.809Z,5.00
2019-01-15T23:52:29.633Z,5.00
2019-01-15T23:55:20.732Z,5.00
2019-01-15T23:57:57.967Z,4.90
